createdAt,value
2022-08-19T00:02:02.052Z,68.58
2022-08-19T00:04:33.537Z,68.74
2022-08-19T00:07:00.637Z,68.76
2022-08-19T00:09:27.423Z,68.84
2022-08-19T00:11:56.555Z,68.85
2022-08-19T00:14:25.327Z,68.24
2022-08-19T00:16:55.257Z,69.22
2022-08-19T00:19:22.791Z,68.87
2022-08-19T00:21:49.343Z,69.22
2022-08-19T00:24:16.537Z,68.87
2022-08-19T00:26:44.739Z,68.67
2022-08-19T00:29:13.385Z,68.81
2022-08-19T00:31:40.362Z,69.43
2022-08-19T00:34:06.963Z,69.70
2022-08-19T00:36:34.228Z,70.04
2022-08-19T00:39:01.453Z,69.94
2022-08-19T00:41:28.407Z,69.60
2022-08-19T00:44:11.321Z,69.52
2022-08-19T00:46:39.919Z,69.63
2022-08-19T00:49:17.439Z,69.66
2022-08-19T00:51:47.928Z,70.26
2022-08-19T00:54:15.804Z,69.94
2022-08-19T00:56:43.158Z,70.34
2022-08-19T00:59:10.180Z,70.58
2022-08-19T01:01:42.043Z,70.91
2022-08-19T01:04:08.809Z,70.83
2022-08-19T01:06:38.284Z,70.83
2022-08-19T01:09:06.001Z,71.17
2022-08-19T01:11:36.331Z,71.04
2022-08-19T01:14:03.988Z,70.98
2022-08-19T01:16:31.674Z,70.95
2022-08-19T01:18:58.241Z,71.02
2022-08-19T01:21:31.948Z,71.26
2022-08-19T01:23:58.584Z,71.83
2022-08-19T01:26:26.342Z,71.80
2022-08-19T01:28:59.599Z,71.41
2022-08-19T01:31:33.208Z,71.83
2022-08-19T01:34:01.824Z,72.25
2022-08-19T01:36:48.111Z,72.83
2022-08-19T01:39:18.816Z,72.75
2022-08-19T01:41:45.380Z,72.34
2022-08-19T01:44:18.664Z,72.87
2022-08-19T01:46:48.524Z,72.35
2022-08-19T01:49:18.038Z,72.79
2022-08-19T01:51:44.697Z,73.18
2022-08-19T01:54:14.212Z,73.30
2022-08-19T01:56:56.552Z,73.82
2022-08-19T01:59:25.656Z,74.25
2022-08-19T02:01:52.223Z,74.36
2022-08-19T02:04:18.854Z,74.31
2022-08-19T02:06:45.436Z,74.08
2022-08-19T02:09:12.202Z,74.72
2022-08-19T02:11:39.179Z,74.28
2022-08-19T02:14:08.432Z,74.53
2022-08-19T02:16:36.771Z,75.10
2022-08-19T02:19:03.883Z,75.39
2022-08-19T02:21:31.497Z,75.49
2022-08-19T02:23:58.679Z,75.67
2022-08-19T02:26:27.559Z,75.60
2022-08-19T02:28:55.584Z,75.99
2022-08-19T02:31:25.744Z,75.98
2022-08-19T02:33:53.379Z,76.16
2022-08-19T02:36:24.516Z,75.70
2022-08-19T02:38:54.748Z,75.90
2022-08-19T02:41:26.792Z,75.80
2022-08-19T02:44:22.854Z,76.17
2022-08-19T02:46:42.671Z,76.82
2022-08-19T02:49:09.426Z,77.06
2022-08-19T02:51:39.712Z,77.00
2022-08-19T02:54:07.733Z,76.27
2022-08-19T02:56:38.891Z,75.94
2022-08-19T02:59:09.288Z,75.73
2022-08-19T03:01:40.107Z,75.93
2022-08-19T03:04:09.076Z,75.29
2022-08-19T03:06:41.102Z,75.52
2022-08-19T03:09:08.094Z,75.35
2022-08-19T03:11:34.977Z,74.82
2022-08-19T03:14:02.985Z,74.62
2022-08-19T03:16:33.197Z,74.85
2022-08-19T03:19:01.052Z,75.00
2022-08-19T03:21:32.609Z,75.00
2022-08-19T03:24:01.864Z,74.85
2022-08-19T03:26:28.995Z,74.86
2022-08-19T03:28:58.224Z,75.04
2022-08-19T03:31:43.871Z,74.65
2022-08-19T03:34:19.814Z,74.58
2022-08-19T03:36:47.204Z,74.48
2022-08-19T03:39:15.408Z,75.04
2022-08-19T03:41:46.471Z,75.16
2022-08-19T03:44:22.119Z,74.81
2022-08-19T03:46:57.000Z,74.88
2022-08-19T03:49:28.406Z,74.80
2022-08-19T03:51:58.129Z,74.92
2022-08-19T03:54:26.252Z,74.99
2022-08-19T03:56:55.771Z,75.22
2022-08-19T03:59:26.993Z,75.27
2022-08-19T04:01:56.174Z,75.10
2022-08-19T04:04:23.238Z,75.07
2022-08-19T04:06:51.722Z,75.29
2022-08-19T04:09:19.397Z,75.94
2022-08-19T04:11:49.905Z,75.86
2022-08-19T04:14:20.769Z,75.79
2022-08-19T04:16:49.632Z,75.47
2022-08-19T04:19:17.818Z,75.68
2022-08-19T04:21:47.151Z,75.64
2022-08-19T04:24:14.348Z,75.79
2022-08-19T04:26:41.588Z,76.34
2022-08-19T04:29:12.769Z,76.45
2022-08-19T04:31:41.957Z,76.13
2022-08-19T04:34:11.943Z,75.89
2022-08-19T04:36:41.590Z,75.70
2022-08-19T04:39:19.216Z,76.05
2022-08-19T04:42:04.617Z,76.04
2022-08-19T04:44:33.505Z,75.53
2022-08-19T04:47:11.179Z,75.79
2022-08-19T04:49:38.226Z,75.81
2022-08-19T04:52:04.850Z,75.83
2022-08-19T04:54:38.276Z,75.99
2022-08-19T04:57:10.848Z,76.43
2022-08-19T04:59:39.743Z,76.26
2022-08-19T05:02:08.746Z,76.97
2022-08-19T05:04:39.233Z,76.53
2022-08-19T05:07:07.939Z,76.18
2022-08-19T05:09:56.749Z,76.15
2022-08-19T05:12:21.927Z,75.45
2022-08-19T05:14:53.116Z,75.38
2022-08-19T05:17:28.785Z,75.77
2022-08-19T05:20:15.789Z,75.13
2022-08-19T05:22:43.587Z,74.73
2022-08-19T05:25:14.216Z,74.06
2022-08-19T05:27:43.821Z,73.62
2022-08-19T05:30:12.390Z,74.15
2022-08-19T05:32:40.820Z,73.95
2022-08-19T05:35:08.330Z,73.86
2022-08-19T05:37:35.103Z,73.49
2022-08-19T05:40:02.479Z,73.41
2022-08-19T05:42:29.308Z,73.49
2022-08-19T05:44:57.012Z,73.53
2022-08-19T05:47:24.179Z,73.06
2022-08-19T05:49:51.707Z,73.34
2022-08-19T05:52:25.741Z,72.67
2022-08-19T05:54:56.143Z,72.62
2022-08-19T05:57:23.794Z,71.80
2022-08-19T05:59:57.618Z,71.54
2022-08-19T06:02:26.373Z,71.05
2022-08-19T06:04:53.022Z,70.31
2022-08-19T06:07:20.486Z,70.44
2022-08-19T06:09:54.482Z,70.26
2022-08-19T06:12:34.098Z,69.99
2022-08-19T06:15:10.147Z,70.31
2022-08-19T06:17:36.970Z,70.44
2022-08-19T06:20:11.009Z,70.09
2022-08-19T06:22:50.749Z,69.40
2022-08-19T06:25:18.329Z,69.36
2022-08-19T06:28:11.541Z,68.73
2022-08-19T06:30:33.331Z,68.23
2022-08-19T06:32:59.905Z,67.74
2022-08-19T06:35:26.453Z,67.96
2022-08-19T06:37:53.982Z,67.66
2022-08-19T06:40:20.722Z,67.39
2022-08-19T06:42:54.244Z,67.27
2022-08-19T06:45:24.715Z,67.21
2022-08-19T06:47:53.345Z,67.40
2022-08-19T06:50:19.919Z,67.93
2022-08-19T06:52:48.380Z,68.15
2022-08-19T06:55:18.579Z,68.47
2022-08-19T06:57:47.264Z,68.50
2022-08-19T07:00:17.446Z,68.28
2022-08-19T07:02:49.609Z,68.40
2022-08-19T07:05:22.633Z,67.91
2022-08-19T07:07:49.200Z,67.44
2022-08-19T07:10:18.070Z,66.97
2022-08-19T07:12:45.883Z,66.83
2022-08-19T07:15:13.572Z,66.86
2022-08-19T07:17:40.393Z,66.47
2022-08-19T07:20:10.205Z,66.08
2022-08-19T07:22:41.198Z,65.69
2022-08-19T07:25:10.656Z,64.78
2022-08-19T07:27:39.759Z,64.67
2022-08-19T07:30:08.401Z,64.61
2022-08-19T07:32:38.762Z,64.63
2022-08-19T07:35:07.166Z,63.55
2022-08-19T07:37:34.076Z,63.06
2022-08-19T07:40:02.598Z,62.86
2022-08-19T07:42:30.922Z,62.72
2022-08-19T07:44:59.615Z,62.45
2022-08-19T07:47:58.375Z,62.61
2022-08-19T07:50:13.811Z,62.96
2022-08-19T07:52:40.855Z,62.46
2022-08-19T07:55:39.851Z,62.51
2022-08-19T07:57:58.454Z,61.88
2022-08-19T08:00:25.540Z,62.32
2022-08-19T08:02:55.830Z,62.01
2022-08-19T08:05:43.878Z,62.27
2022-08-19T08:08:31.014Z,62.05
2022-08-19T08:10:58.676Z,61.75
2022-08-19T08:13:26.478Z,61.43
2022-08-19T08:15:53.409Z,61.26
2022-08-19T08:18:22.736Z,60.44
2022-08-19T08:20:56.097Z,60.19
2022-08-19T08:23:26.896Z,60.01
2022-08-19T08:25:57.693Z,59.87
2022-08-19T08:28:25.608Z,59.08
2022-08-19T08:30:52.994Z,58.28
2022-08-19T08:33:33.089Z,59.14
2022-08-19T08:36:12.031Z,59.21
2022-08-19T08:38:40.949Z,59.26
2022-08-19T08:41:29.737Z,59.28
2022-08-19T08:43:58.236Z,59.20
2022-08-19T08:46:49.430Z,59.20
2022-08-19T08:49:40.994Z,58.77
2022-08-19T08:52:21.182Z,58.28
2022-08-19T08:54:54.896Z,57.38
2022-08-19T08:57:30.508Z,57.07
2022-08-19T09:00:15.785Z,57.47
2022-08-19T09:02:43.793Z,57.42
2022-08-19T09:05:16.562Z,57.05
2022-08-19T09:08:09.897Z,57.45
2022-08-19T09:10:55.346Z,57.25
2022-08-19T09:13:40.137Z,56.53
2022-08-19T09:16:17.072Z,56.08
2022-08-19T09:18:45.648Z,56.02
2022-08-19T09:21:12.429Z,55.92
2022-08-19T09:23:39.028Z,55.86
2022-08-19T09:26:16.433Z,55.85
2022-08-19T09:28:45.256Z,55.53
2022-08-19T09:31:18.533Z,54.59
2022-08-19T09:33:45.912Z,54.36
2022-08-19T09:36:14.730Z,53.84
2022-08-19T09:38:57.906Z,52.96
2022-08-19T09:41:26.058Z,52.92
2022-08-19T09:43:57.737Z,52.98
2022-08-19T09:46:26.964Z,53.67
2022-08-19T09:48:54.495Z,53.77
2022-08-19T09:51:27.137Z,53.68
2022-08-19T09:53:58.445Z,53.63
2022-08-19T09:56:25.741Z,54.31
2022-08-19T09:58:52.565Z,54.67
2022-08-19T10:01:23.928Z,54.75
2022-08-19T10:03:54.195Z,54.63
2022-08-19T10:06:45.735Z,54.17
2022-08-19T10:09:12.216Z,54.01
2022-08-19T10:11:51.076Z,54.10
2022-08-19T10:14:23.451Z,54.17
2022-08-19T10:16:52.961Z,53.93
2022-08-19T10:19:26.157Z,53.95
2022-08-19T10:21:55.691Z,53.92
2022-08-19T10:24:28.952Z,53.76
2022-08-19T10:26:59.133Z,53.29
2022-08-19T10:29:32.553Z,53.22
2022-08-19T10:32:09.872Z,53.09
2022-08-19T10:34:48.205Z,52.76
2022-08-19T10:37:22.843Z,52.07
2022-08-19T10:39:56.345Z,51.97
2022-08-19T10:42:23.420Z,51.84
2022-08-19T10:44:52.627Z,52.32
2022-08-19T10:47:25.993Z,52.04
2022-08-19T10:50:15.464Z,52.35
2022-08-19T10:52:50.012Z,52.11
2022-08-19T10:55:38.719Z,52.00
2022-08-19T10:58:11.024Z,50.99
2022-08-19T11:00:38.161Z,51.71
2022-08-19T11:03:05.210Z,51.86
2022-08-19T11:05:39.734Z,51.47
2022-08-19T11:08:23.074Z,50.65
2022-08-19T11:11:01.840Z,50.35
2022-08-19T11:13:29.886Z,49.49
2022-08-19T11:16:07.826Z,48.59
2022-08-19T11:18:39.817Z,48.45
2022-08-19T11:21:09.176Z,48.21
2022-08-19T11:23:35.825Z,48.08
2022-08-19T11:26:02.815Z,48.22
2022-08-19T11:28:29.676Z,47.53
2022-08-19T11:30:56.363Z,46.51
2022-08-19T11:33:23.017Z,47.04
2022-08-19T11:35:50.392Z,46.87
2022-08-19T11:38:17.161Z,46.73
2022-08-19T11:40:43.731Z,46.55
2022-08-19T11:43:10.647Z,47.18
2022-08-19T11:45:37.300Z,45.91
2022-08-19T11:48:04.554Z,46.18
2022-08-19T11:50:31.267Z,46.75
2022-08-19T11:52:58.151Z,45.78
2022-08-19T11:55:25.056Z,45.87
2022-08-19T11:57:51.732Z,47.08
2022-08-19T12:00:18.511Z,46.83
2022-08-19T12:02:45.476Z,46.75
2022-08-19T12:05:13.079Z,46.21
2022-08-19T12:07:40.757Z,45.22
2022-08-19T12:10:08.347Z,44.88
2022-08-19T12:12:35.327Z,44.94
2022-08-19T12:15:02.179Z,44.51
2022-08-19T12:17:29.526Z,44.96
2022-08-19T12:19:56.089Z,44.79
2022-08-19T12:22:22.811Z,44.79
2022-08-19T12:24:51.256Z,44.26
2022-08-19T12:27:20.308Z,44.48
2022-08-19T12:29:59.581Z,43.59
2022-08-19T12:32:27.473Z,44.34
2022-08-19T12:34:54.053Z,44.31
2022-08-19T12:37:20.639Z,44.53
2022-08-19T12:39:47.430Z,43.92
2022-08-19T12:42:16.123Z,44.21
2022-08-19T12:44:44.624Z,44.24
2022-08-19T12:47:14.423Z,43.89
2022-08-19T12:49:52.067Z,43.47
2022-08-19T12:52:23.131Z,44.14
2022-08-19T12:54:54.341Z,44.05
2022-08-19T12:57:23.229Z,44.55
2022-08-19T12:59:55.226Z,43.10
2022-08-19T13:02:22.405Z,41.95
2022-08-19T13:04:49.328Z,40.41
2022-08-19T13:07:15.885Z,41.73
2022-08-19T13:09:43.678Z,42.13
2022-08-19T13:12:14.021Z,41.69
2022-08-19T13:14:41.465Z,41.19
2022-08-19T13:17:09.484Z,41.19
2022-08-19T13:19:38.225Z,41.25
2022-08-19T13:22:04.863Z,40.45
2022-08-19T13:24:45.112Z,40.42
2022-08-19T13:27:13.598Z,39.84
2022-08-19T13:30:02.770Z,39.10
2022-08-19T13:32:49.273Z,39.51
2022-08-19T13:35:18.235Z,39.38
2022-08-19T13:37:46.431Z,38.89
2022-08-19T13:40:25.571Z,38.10
2022-08-19T13:42:53.867Z,38.26
2022-08-19T13:45:25.212Z,38.35
2022-08-19T13:47:59.191Z,37.83
2022-08-19T13:50:29.529Z,38.37
2022-08-19T13:52:57.262Z,38.85
2022-08-19T13:55:25.428Z,39.24
2022-08-19T13:57:57.396Z,39.20
2022-08-19T14:00:27.534Z,39.08
2022-08-19T14:02:56.834Z,38.16
2022-08-19T14:05:25.877Z,38.09
2022-08-19T14:07:53.660Z,39.17
2022-08-19T14:10:21.011Z,38.91
2022-08-19T14:12:48.419Z,39.56
2022-08-19T14:15:16.368Z,40.29
2022-08-19T14:17:45.157Z,40.67
2022-08-19T14:20:17.760Z,40.28
2022-08-19T14:22:47.036Z,39.91
2022-08-19T14:25:18.574Z,39.40
2022-08-19T14:27:45.978Z,38.75
2022-08-19T14:30:16.382Z,38.40
2022-08-19T14:32:44.807Z,37.29
2022-08-19T14:35:13.617Z,37.60
2022-08-19T14:37:45.131Z,37.70
2022-08-19T14:40:14.976Z,36.83
2022-08-19T14:42:42.782Z,36.54
2022-08-19T14:45:11.376Z,35.82
2022-08-19T14:47:39.856Z,35.67
2022-08-19T14:50:17.805Z,35.45
2022-08-19T14:52:46.810Z,35.84
2022-08-19T14:55:13.417Z,35.39
2022-08-19T14:57:42.046Z,34.61
2022-08-19T15:00:14.473Z,34.82
2022-08-19T15:02:42.409Z,34.16
2022-08-19T15:05:09.681Z,32.79
2022-08-19T15:07:36.890Z,32.91
2022-08-19T15:10:04.612Z,33.74
2022-08-19T15:12:31.534Z,33.02
2022-08-19T15:14:58.485Z,33.93
2022-08-19T15:17:43.710Z,34.95
2022-08-19T15:20:15.817Z,35.68
2022-08-19T15:22:43.602Z,37.23
2022-08-19T15:25:13.621Z,38.09
2022-08-19T15:27:41.567Z,38.68
2022-08-19T15:30:10.003Z,39.22
2022-08-19T15:32:38.034Z,38.14
2022-08-19T15:35:06.542Z,39.38
2022-08-19T15:37:34.428Z,39.82
2022-08-19T15:40:09.584Z,40.42
2022-08-19T15:42:37.714Z,40.39
2022-08-19T15:45:08.373Z,40.19
2022-08-19T15:47:35.780Z,40.44
2022-08-19T15:50:29.084Z,40.81
2022-08-19T15:52:59.408Z,40.89
2022-08-19T15:55:33.194Z,41.30
2022-08-19T15:58:31.981Z,41.58
2022-08-19T16:01:20.489Z,42.03
2022-08-19T16:04:13.999Z,42.36
2022-08-19T16:06:51.908Z,42.52
2022-08-19T16:09:26.462Z,42.47
2022-08-19T16:12:01.472Z,42.51
2022-08-19T16:14:30.524Z,42.19
2022-08-19T16:16:57.778Z,41.72
2022-08-19T16:19:25.121Z,41.85
2022-08-19T16:21:54.489Z,42.62
2022-08-19T16:24:26.780Z,42.34
2022-08-19T16:26:54.577Z,42.97
2022-08-19T16:29:34.790Z,43.56
2022-08-19T16:32:10.179Z,43.79
2022-08-19T16:34:38.414Z,44.04
2022-08-19T16:37:05.200Z,43.93
2022-08-19T16:39:31.874Z,43.47
2022-08-19T16:41:59.179Z,43.47
2022-08-19T16:44:29.712Z,43.31
2022-08-19T16:46:59.194Z,43.64
2022-08-19T16:49:53.492Z,44.35
2022-08-19T16:52:19.383Z,44.72
2022-08-19T16:54:46.342Z,45.33
2022-08-19T16:57:13.572Z,44.95
2022-08-19T16:59:48.323Z,45.80
2022-08-19T17:02:19.395Z,45.65
2022-08-19T17:04:57.516Z,45.55
2022-08-19T17:07:32.277Z,45.35
2022-08-19T17:09:59.973Z,45.62
2022-08-19T17:12:30.759Z,46.36
2022-08-19T17:15:00.846Z,46.52
2022-08-19T17:17:29.315Z,47.07
2022-08-19T17:19:56.725Z,47.96
2022-08-19T17:22:26.406Z,48.51
2022-08-19T17:24:53.037Z,48.76
2022-08-19T17:27:23.091Z,49.19
2022-08-19T17:29:49.722Z,48.68
2022-08-19T17:32:16.303Z,49.07
2022-08-19T17:34:51.525Z,48.84
2022-08-19T17:37:18.116Z,49.84
2022-08-19T17:39:44.766Z,50.07
2022-08-19T17:42:11.391Z,51.10
2022-08-19T17:44:38.120Z,51.65
2022-08-19T17:47:04.884Z,51.34
2022-08-19T17:49:33.250Z,52.33
2022-08-19T17:52:00.526Z,52.93
2022-08-19T17:54:33.189Z,52.97
2022-08-19T17:57:00.516Z,52.74
2022-08-19T17:59:29.232Z,53.43
2022-08-19T18:01:57.894Z,53.39
2022-08-19T18:04:26.331Z,53.33
2022-08-19T18:06:55.406Z,53.60
2022-08-19T18:09:27.835Z,53.95
2022-08-19T18:11:57.283Z,54.46
2022-08-19T18:14:33.257Z,54.84
2022-08-19T18:17:03.095Z,54.55
2022-08-19T18:19:40.784Z,55.18
2022-08-19T18:22:29.581Z,55.45
2022-08-19T18:24:58.277Z,55.55
2022-08-19T18:27:27.068Z,56.17
2022-08-19T18:29:59.601Z,56.49
2022-08-19T18:32:32.572Z,56.67
2022-08-19T18:35:01.380Z,56.77
2022-08-19T18:37:27.981Z,56.83
2022-08-19T18:40:14.285Z,57.19
2022-08-19T18:43:04.715Z,57.42
2022-08-19T18:45:50.808Z,56.67
2022-08-19T18:48:36.173Z,57.35
2022-08-19T18:51:03.278Z,57.20
2022-08-19T18:53:33.229Z,57.66
2022-08-19T18:56:00.325Z,57.64
2022-08-19T18:58:34.346Z,57.33
2022-08-19T19:01:15.060Z,57.45
2022-08-19T19:03:45.346Z,57.53
2022-08-19T19:06:14.863Z,57.56
2022-08-19T19:08:41.792Z,57.22
2022-08-19T19:11:09.006Z,57.60
2022-08-19T19:13:39.898Z,56.96
2022-08-19T19:16:10.027Z,57.83
2022-08-19T19:18:37.401Z,57.08
2022-08-19T19:21:04.066Z,56.98
2022-08-19T19:23:30.662Z,57.16
2022-08-19T19:25:57.301Z,57.28
2022-08-19T19:28:29.250Z,57.01
2022-08-19T19:31:00.278Z,57.34
2022-08-19T19:33:28.329Z,57.17
2022-08-19T19:35:54.998Z,57.11
2022-08-19T19:38:21.581Z,57.28
2022-08-19T19:40:48.168Z,57.86
2022-08-19T19:43:18.350Z,58.05
2022-08-19T19:45:46.553Z,58.12
2022-08-19T19:48:16.722Z,58.36
2022-08-19T19:50:44.902Z,58.73
2022-08-19T19:53:11.661Z,58.96
2022-08-19T19:55:39.869Z,59.20
2022-08-19T19:58:07.110Z,59.32
2022-08-19T20:00:34.114Z,59.31
2022-08-19T20:03:00.736Z,59.60
2022-08-19T20:05:27.455Z,59.59
2022-08-19T20:08:13.424Z,59.64
2022-08-19T20:10:42.156Z,59.73
2022-08-19T20:13:11.007Z,59.96
2022-08-19T20:15:42.407Z,59.94
2022-08-19T20:18:11.486Z,60.09
2022-08-19T20:20:38.200Z,60.36
2022-08-19T20:23:05.245Z,60.28
2022-08-19T20:25:32.285Z,60.69
2022-08-19T20:28:01.257Z,60.74
2022-08-19T20:30:28.754Z,60.92
2022-08-19T20:32:58.931Z,60.54
2022-08-19T20:35:26.468Z,100.00
2022-08-19T20:37:58.075Z,100.00
2022-08-19T20:40:25.704Z,100.00
2022-08-19T20:42:52.269Z,100.00
2022-08-19T20:45:32.815Z,100.00
2022-08-19T20:48:03.068Z,100.00
2022-08-19T20:50:30.867Z,100.00
2022-08-19T20:52:57.924Z,100.00
2022-08-19T20:55:26.531Z,100.00
2022-08-19T20:57:53.854Z,100.00
2022-08-19T21:00:37.107Z,100.00
2022-08-19T21:03:03.928Z,100.00
2022-08-19T21:05:30.887Z,100.00
2022-08-19T21:07:57.774Z,100.00
2022-08-19T21:10:26.202Z,100.00
2022-08-19T21:12:53.603Z,100.00
2022-08-19T21:15:20.302Z,100.00
2022-08-19T21:17:48.565Z,100.00
2022-08-19T21:20:15.488Z,100.00
2022-08-19T21:22:42.048Z,100.00
2022-08-19T21:25:08.703Z,100.00
2022-08-19T21:27:35.350Z,100.00
2022-08-19T21:30:02.572Z,100.00
2022-08-19T21:32:29.120Z,100.00
2022-08-19T21:34:55.770Z,100.00
2022-08-19T21:37:25.658Z,100.00
2022-08-19T21:39:53.916Z,100.00
2022-08-19T21:42:21.353Z,100.00
2022-08-19T21:44:48.002Z,100.00
2022-08-19T21:47:14.559Z,100.00
2022-08-19T21:49:41.385Z,100.00
2022-08-19T21:52:08.362Z,100.00
2022-08-19T21:54:37.996Z,100.00
2022-08-19T21:57:07.069Z,100.00
2022-08-19T21:59:43.714Z,100.00
2022-08-19T22:02:21.053Z,100.00
2022-08-19T22:04:50.422Z,100.00
2022-08-19T22:07:17.892Z,100.00
2022-08-19T22:09:46.649Z,100.00
2022-08-19T22:12:32.285Z,100.00
2022-08-19T22:15:00.008Z,100.00
2022-08-19T22:17:31.538Z,100.00
2022-08-19T22:19:58.549Z,100.00
2022-08-19T22:22:29.491Z,100.00
2022-08-19T22:25:12.229Z,100.00
2022-08-19T22:27:39.285Z,100.00
2022-08-19T22:30:11.379Z,100.00
2022-08-19T22:32:38.463Z,100.00
2022-08-19T22:35:08.321Z,100.00
2022-08-19T22:37:35.025Z,100.00
2022-08-19T22:40:05.597Z,100.00
2022-08-19T22:42:33.042Z,100.00
2022-08-19T22:45:00.094Z,100.00
2022-08-19T22:47:27.218Z,100.00
2022-08-19T22:49:56.690Z,100.00
2022-08-19T22:52:23.326Z,100.00
2022-08-19T22:54:53.006Z,100.00
2022-08-19T22:57:20.962Z,100.00
2022-08-19T22:59:49.195Z,100.00
2022-08-19T23:02:21.956Z,100.00
2022-08-19T23:04:49.768Z,100.00
2022-08-19T23:07:17.444Z,100.00
2022-08-19T23:09:44.856Z,100.00
2022-08-19T23:12:17.070Z,100.00
2022-08-19T23:14:44.525Z,100.00
2022-08-19T23:17:11.095Z,100.00
2022-08-19T23:19:38.529Z,100.00
2022-08-19T23:22:05.298Z,100.00
2022-08-19T23:24:31.889Z,100.00
2022-08-19T23:27:17.032Z,100.00
2022-08-19T23:30:02.013Z,100.00
2022-08-19T23:32:29.348Z,100.00
2022-08-19T23:34:56.398Z,100.00
2022-08-19T23:37:25.351Z,100.00
2022-08-19T23:39:52.630Z,100.00
2022-08-19T23:42:20.612Z,100.00
2022-08-19T23:44:52.003Z,100.00
2022-08-19T23:47:20.873Z,100.00
2022-08-19T23:49:48.747Z,100.00
2022-08-19T23:52:15.576Z,100.00
2022-08-19T23:54:43.702Z,100.00
2022-08-19T23:57:14.512Z,100.00
2022-08-19T23:59:42.611Z,100.00
